sensor_id;sensor_type;location;lat;lon;timestamp;P1;durP1;ratioP1;P2;durP2;ratioP2
48925;SDS011;39838;59.938;30.642;2023-08-24T00:00:49;5.75;;;4.40;;
48925;SDS011;39838;59.938;30.642;2023-08-24T00:03:16;8.63;;;4.18;;
48925;SDS011;39838;59.938;30.642;2023-08-24T00:05:44;9.45;;;4.40;;
48925;SDS011;39838;59.938;30.642;2023-08-24T00:08:11;8.65;;;4.55;;
48925;SDS011;39838;59.938;30.642;2023-08-24T00:10:39;7.45;;;4.80;;
48925;SDS011;39838;59.938;30.642;2023-08-24T00:13:10;9.60;;;4.57;;
48925;SDS011;39838;59.938;30.642;2023-08-24T00:15:38;8.57;;;4.50;;
48925;SDS011;39838;59.938;30.642;2023-08-24T00:18:06;7.40;;;4.40;;
48925;SDS011;39838;59.938;30.642;2023-08-24T00:20:34;6.10;;;4.55;;
48925;SDS011;39838;59.938;30.642;2023-08-24T00:23:02;6.55;;;4.22;;
48925;SDS011;39838;59.938;30.642;2023-08-24T00:25:30;7.90;;;4.22;;
48925;SDS011;39838;59.938;30.642;2023-08-24T00:27:57;10.43;;;4.50;;
48925;SDS011;39838;59.938;30.642;2023-08-24T00:30:25;8.05;;;5.25;;
48925;SDS011;39838;59.938;30.642;2023-08-24T00:32:53;7.50;;;4.93;;
48925;SDS011;39838;59.938;30.642;2023-08-24T00:35:21;7.43;;;4.40;;
48925;SDS011;39838;59.938;30.642;2023-08-24T00:37:48;7.13;;;4.90;;
48925;SDS011;39838;59.938;30.642;2023-08-24T00:40:16;9.20;;;4.93;;
48925;SDS011;39838;59.938;30.642;2023-08-24T00:42:45;7.18;;;4.82;;
48925;SDS011;39838;59.938;30.642;2023-08-24T00:45:12;8.70;;;5.05;;
48925;SDS011;39838;59.938;30.642;2023-08-24T00:47:41;6.68;;;4.90;;
48925;SDS011;39838;59.938;30.642;2023-08-24T00:50:12;8.70;;;5.18;;
48925;SDS011;39838;59.938;30.642;2023-08-24T00:52:40;8.27;;;5.35;;
48925;SDS011;39838;59.938;30.642;2023-08-24T00:55:09;7.80;;;4.88;;
48925;SDS011;39838;59.938;30.642;2023-08-24T00:57:37;7.63;;;5.10;;
48925;SDS011;39838;59.938;30.642;2023-08-24T01:00:06;7.55;;;5.18;;
48925;SDS011;39838;59.938;30.642;2023-08-24T01:02:35;8.30;;;5.15;;
48925;SDS011;39838;59.938;30.642;2023-08-24T01:05:03;7.93;;;5.18;;
48925;SDS011;39838;59.938;30.642;2023-08-24T01:07:33;6.10;;;4.80;;
48925;SDS011;39838;59.938;30.642;2023-08-24T01:10:03;5.97;;;4.47;;
48925;SDS011;39838;59.938;30.642;2023-08-24T01:12:34;5.85;;;4.45;;
48925;SDS011;39838;59.938;30.642;2023-08-24T01:15:15;7.22;;;4.38;;
48925;SDS011;39838;59.938;30.642;2023-08-24T01:17:48;6.73;;;4.50;;
48925;SDS011;39838;59.938;30.642;2023-08-24T01:20:19;7.90;;;4.43;;
48925;SDS011;39838;59.938;30.642;2023-08-24T01:22:49;8.05;;;4.50;;
48925;SDS011;39838;59.938;30.642;2023-08-24T01:25:24;6.63;;;4.35;;
48925;SDS011;39838;59.938;30.642;2023-08-24T01:28:03;6.55;;;4.80;;
48925;SDS011;39838;59.938;30.642;2023-08-24T01:30:33;7.43;;;4.50;;
48925;SDS011;39838;59.938;30.642;2023-08-24T01:33:02;6.28;;;4.72;;
48925;SDS011;39838;59.938;30.642;2023-08-24T01:35:30;6.25;;;4.70;;
48925;SDS011;39838;59.938;30.642;2023-08-24T01:37:58;9.75;;;4.82;;
48925;SDS011;39838;59.938;30.642;2023-08-24T01:40:32;9.27;;;4.40;;
48925;SDS011;39838;59.938;30.642;2023-08-24T01:43:09;8.60;;;4.97;;
48925;SDS011;39838;59.938;30.642;2023-08-24T01:45:40;7.70;;;4.30;;
48925;SDS011;39838;59.938;30.642;2023-08-24T01:48:10;5.18;;;3.97;;
48925;SDS011;39838;59.938;30.642;2023-08-24T01:50:39;6.20;;;4.13;;
48925;SDS011;39838;59.938;30.642;2023-08-24T01:53:08;8.00;;;4.53;;
48925;SDS011;39838;59.938;30.642;2023-08-24T01:55:36;7.80;;;4.53;;
48925;SDS011;39838;59.938;30.642;2023-08-24T01:58:03;6.05;;;4.47;;
48925;SDS011;39838;59.938;30.642;2023-08-24T02:00:32;7.43;;;3.95;;
48925;SDS011;39838;59.938;30.642;2023-08-24T02:02:59;8.02;;;4.45;;
48925;SDS011;39838;59.938;30.642;2023-08-24T02:05:27;7.95;;;4.93;;
48925;SDS011;39838;59.938;30.642;2023-08-24T02:07:54;6.70;;;4.90;;
48925;SDS011;39838;59.938;30.642;2023-08-24T02:10:22;7.50;;;4.38;;
48925;SDS011;39838;59.938;30.642;2023-08-24T02:12:50;6.55;;;4.50;;
48925;SDS011;39838;59.938;30.642;2023-08-24T02:15:17;9.60;;;4.15;;
48925;SDS011;39838;59.938;30.642;2023-08-24T02:17:46;5.72;;;4.07;;
48925;SDS011;39838;59.938;30.642;2023-08-24T02:20:13;5.93;;;4.43;;
48925;SDS011;39838;59.938;30.642;2023-08-24T02:22:41;6.22;;;4.32;;
48925;SDS011;39838;59.938;30.642;2023-08-24T02:25:09;5.70;;;4.03;;
48925;SDS011;39838;59.938;30.642;2023-08-24T02:27:36;6.78;;;4.00;;
48925;SDS011;39838;59.938;30.642;2023-08-24T02:30:04;5.75;;;4.30;;
48925;SDS011;39838;59.938;30.642;2023-08-24T02:32:33;6.47;;;4.40;;
48925;SDS011;39838;59.938;30.642;2023-08-24T02:35:02;6.38;;;4.43;;
48925;SDS011;39838;59.938;30.642;2023-08-24T02:37:30;7.65;;;4.35;;
48925;SDS011;39838;59.938;30.642;2023-08-24T02:39:57;5.55;;;4.60;;
48925;SDS011;39838;59.938;30.642;2023-08-24T02:42:25;5.80;;;4.60;;
48925;SDS011;39838;59.938;30.642;2023-08-24T02:44:52;6.55;;;4.60;;
48925;SDS011;39838;59.938;30.642;2023-08-24T02:47:19;6.40;;;4.60;;
48925;SDS011;39838;59.938;30.642;2023-08-24T02:49:47;7.05;;;4.60;;
48925;SDS011;39838;59.938;30.642;2023-08-24T02:52:15;6.60;;;4.70;;
48925;SDS011;39838;59.938;30.642;2023-08-24T02:54:43;6.30;;;4.80;;
48925;SDS011;39838;59.938;30.642;2023-08-24T02:57:10;6.85;;;4.75;;
48925;SDS011;39838;59.938;30.642;2023-08-24T02:59:37;7.28;;;4.97;;
48925;SDS011;39838;59.938;30.642;2023-08-24T03:02:05;7.68;;;4.85;;
48925;SDS011;39838;59.938;30.642;2023-08-24T03:04:32;7.25;;;5.20;;
48925;SDS011;39838;59.938;30.642;2023-08-24T03:07:00;7.82;;;4.85;;
48925;SDS011;39838;59.938;30.642;2023-08-24T03:09:29;7.32;;;5.00;;
48925;SDS011;39838;59.938;30.642;2023-08-24T03:11:56;12.82;;;5.25;;
48925;SDS011;39838;59.938;30.642;2023-08-24T03:14:24;8.48;;;5.65;;
48925;SDS011;39838;59.938;30.642;2023-08-24T03:16:51;10.23;;;5.70;;
48925;SDS011;39838;59.938;30.642;2023-08-24T03:19:19;7.07;;;5.50;;
48925;SDS011;39838;59.938;30.642;2023-08-24T03:21:46;8.55;;;5.47;;
48925;SDS011;39838;59.938;30.642;2023-08-24T03:24:13;6.28;;;5.35;;
48925;SDS011;39838;59.938;30.642;2023-08-24T03:26:42;7.60;;;5.55;;
48925;SDS011;39838;59.938;30.642;2023-08-24T03:29:09;9.52;;;5.45;;
48925;SDS011;39838;59.938;30.642;2023-08-24T03:31:37;6.75;;;5.45;;
48925;SDS011;39838;59.938;30.642;2023-08-24T03:34:04;8.60;;;6.57;;
48925;SDS011;39838;59.938;30.642;2023-08-24T03:36:31;9.23;;;6.78;;
48925;SDS011;39838;59.938;30.642;2023-08-24T03:38:59;8.95;;;6.10;;
48925;SDS011;39838;59.938;30.642;2023-08-24T03:41:26;11.82;;;7.05;;
48925;SDS011;39838;59.938;30.642;2023-08-24T03:43:55;7.70;;;6.45;;
48925;SDS011;39838;59.938;30.642;2023-08-24T03:46:22;9.38;;;7.78;;
48925;SDS011;39838;59.938;30.642;2023-08-24T03:48:49;11.75;;;6.82;;
48925;SDS011;39838;59.938;30.642;2023-08-24T03:51:17;10.23;;;7.55;;
48925;SDS011;39838;59.938;30.642;2023-08-24T03:53:44;11.88;;;6.72;;
48925;SDS011;39838;59.938;30.642;2023-08-24T03:56:11;10.70;;;7.05;;
48925;SDS011;39838;59.938;30.642;2023-08-24T03:58:39;8.32;;;6.97;;
48925;SDS011;39838;59.938;30.642;2023-08-24T04:01:11;8.65;;;6.78;;
48925;SDS011;39838;59.938;30.642;2023-08-24T04:03:38;9.88;;;5.68;;
48925;SDS011;39838;59.938;30.642;2023-08-24T04:06:06;7.43;;;5.50;;
48925;SDS011;39838;59.938;30.642;2023-08-24T04:08:33;7.03;;;4.88;;
48925;SDS011;39838;59.938;30.642;2023-08-24T04:11:01;9.15;;;4.93;;
48925;SDS011;39838;59.938;30.642;2023-08-24T04:13:28;9.63;;;5.03;;
48925;SDS011;39838;59.938;30.642;2023-08-24T04:15:56;7.70;;;4.70;;
48925;SDS011;39838;59.938;30.642;2023-08-24T04:18:25;10.82;;;4.53;;
48925;SDS011;39838;59.938;30.642;2023-08-24T04:20:52;9.93;;;4.85;;
48925;SDS011;39838;59.938;30.642;2023-08-24T04:23:23;8.65;;;4.90;;
48925;SDS011;39838;59.938;30.642;2023-08-24T04:25:52;10.73;;;6.18;;
48925;SDS011;39838;59.938;30.642;2023-08-24T04:28:20;15.07;;;6.65;;
48925;SDS011;39838;59.938;30.642;2023-08-24T04:30:49;12.65;;;7.72;;
48925;SDS011;39838;59.938;30.642;2023-08-24T04:33:17;17.42;;;9.32;;
48925;SDS011;39838;59.938;30.642;2023-08-24T04:35:47;13.05;;;8.95;;
48925;SDS011;39838;59.938;30.642;2023-08-24T04:38:14;14.98;;;9.50;;
48925;SDS011;39838;59.938;30.642;2023-08-24T04:40:46;14.00;;;9.30;;
48925;SDS011;39838;59.938;30.642;2023-08-24T04:43:16;15.48;;;10.63;;
48925;SDS011;39838;59.938;30.642;2023-08-24T04:45:43;16.63;;;11.32;;
48925;SDS011;39838;59.938;30.642;2023-08-24T04:48:12;20.08;;;12.70;;
48925;SDS011;39838;59.938;30.642;2023-08-24T04:50:41;19.08;;;13.10;;
48925;SDS011;39838;59.938;30.642;2023-08-24T04:53:11;23.10;;;13.57;;
48925;SDS011;39838;59.938;30.642;2023-08-24T04:55:39;34.08;;;19.27;;
48925;SDS011;39838;59.938;30.642;2023-08-24T04:58:07;29.23;;;19.83;;
48925;SDS011;39838;59.938;30.642;2023-08-24T05:00:35;25.70;;;17.85;;
48925;SDS011;39838;59.938;30.642;2023-08-24T05:03:03;23.02;;;17.05;;
48925;SDS011;39838;59.938;30.642;2023-08-24T05:05:31;24.40;;;16.20;;
48925;SDS011;39838;59.938;30.642;2023-08-24T05:08:00;29.13;;;15.65;;
48925;SDS011;39838;59.938;30.642;2023-08-24T05:10:31;22.58;;;14.73;;
48925;SDS011;39838;59.938;30.642;2023-08-24T05:13:00;25.27;;;16.20;;
48925;SDS011;39838;59.938;30.642;2023-08-24T05:15:28;22.30;;;15.63;;
48925;SDS011;39838;59.938;30.642;2023-08-24T05:17:55;26.38;;;15.25;;
48925;SDS011;39838;59.938;30.642;2023-08-24T05:20:25;23.38;;;14.25;;
48925;SDS011;39838;59.938;30.642;2023-08-24T05:22:52;25.08;;;12.38;;
48925;SDS011;39838;59.938;30.642;2023-08-24T05:25:21;17.23;;;10.50;;
48925;SDS011;39838;59.938;30.642;2023-08-24T05:27:50;23.73;;;10.52;;
48925;SDS011;39838;59.938;30.642;2023-08-24T05:30:17;14.40;;;7.57;;
48925;SDS011;39838;59.938;30.642;2023-08-24T05:32:44;16.70;;;7.70;;
48925;SDS011;39838;59.938;30.642;2023-08-24T05:35:12;14.25;;;7.22;;
48925;SDS011;39838;59.938;30.642;2023-08-24T05:37:39;9.07;;;6.10;;
48925;SDS011;39838;59.938;30.642;2023-08-24T05:40:07;9.30;;;5.88;;
48925;SDS011;39838;59.938;30.642;2023-08-24T05:42:34;12.05;;;5.57;;
48925;SDS011;39838;59.938;30.642;2023-08-24T05:45:05;11.60;;;5.38;;
48925;SDS011;39838;59.938;30.642;2023-08-24T05:47:33;9.85;;;5.00;;
48925;SDS011;39838;59.938;30.642;2023-08-24T05:50:00;7.10;;;5.15;;
48925;SDS011;39838;59.938;30.642;2023-08-24T05:52:29;11.38;;;4.90;;
48925;SDS011;39838;59.938;30.642;2023-08-24T05:54:56;11.82;;;5.03;;
48925;SDS011;39838;59.938;30.642;2023-08-24T05:57:24;11.88;;;5.28;;
48925;SDS011;39838;59.938;30.642;2023-08-24T05:59:51;13.55;;;4.88;;
48925;SDS011;39838;59.938;30.642;2023-08-24T06:02:20;7.75;;;4.88;;
48925;SDS011;39838;59.938;30.642;2023-08-24T06:04:47;7.15;;;4.80;;
48925;SDS011;39838;59.938;30.642;2023-08-24T06:07:16;13.07;;;5.18;;
48925;SDS011;39838;59.938;30.642;2023-08-24T06:09:43;11.50;;;5.38;;
48925;SDS011;39838;59.938;30.642;2023-08-24T06:12:11;11.52;;;5.50;;
48925;SDS011;39838;59.938;30.642;2023-08-24T06:14:38;11.75;;;5.70;;
48925;SDS011;39838;59.938;30.642;2023-08-24T06:17:05;10.30;;;5.55;;
48925;SDS011;39838;59.938;30.642;2023-08-24T06:19:34;10.32;;;5.60;;
48925;SDS011;39838;59.938;30.642;2023-08-24T06:22:01;10.13;;;5.32;;
48925;SDS011;39838;59.938;30.642;2023-08-24T06:24:28;12.40;;;5.55;;
48925;SDS011;39838;59.938;30.642;2023-08-24T06:26:56;12.43;;;5.90;;
48925;SDS011;39838;59.938;30.642;2023-08-24T06:29:23;15.57;;;6.22;;
48925;SDS011;39838;59.938;30.642;2023-08-24T06:31:51;14.55;;;6.53;;
48925;SDS011;39838;59.938;30.642;2023-08-24T06:34:18;10.75;;;6.28;;
48925;SDS011;39838;59.938;30.642;2023-08-24T06:36:47;13.18;;;6.30;;
48925;SDS011;39838;59.938;30.642;2023-08-24T06:39:16;12.43;;;6.60;;
48925;SDS011;39838;59.938;30.642;2023-08-24T06:41:44;11.70;;;7.30;;
48925;SDS011;39838;59.938;30.642;2023-08-24T06:44:12;15.18;;;7.22;;
48925;SDS011;39838;59.938;30.642;2023-08-24T06:46:39;14.90;;;7.35;;
48925;SDS011;39838;59.938;30.642;2023-08-24T06:49:06;15.15;;;7.00;;
48925;SDS011;39838;59.938;30.642;2023-08-24T06:51:34;13.77;;;7.10;;
48925;SDS011;39838;59.938;30.642;2023-08-24T06:54:02;10.32;;;6.00;;
48925;SDS011;39838;59.938;30.642;2023-08-24T06:56:30;11.13;;;6.28;;
48925;SDS011;39838;59.938;30.642;2023-08-24T06:58:57;9.50;;;6.15;;
48925;SDS011;39838;59.938;30.642;2023-08-24T07:01:24;8.23;;;5.85;;
48925;SDS011;39838;59.938;30.642;2023-08-24T07:03:52;16.23;;;5.78;;
48925;SDS011;39838;59.938;30.642;2023-08-24T07:06:19;13.23;;;6.18;;
48925;SDS011;39838;59.938;30.642;2023-08-24T07:08:47;10.70;;;5.28;;
48925;SDS011;39838;59.938;30.642;2023-08-24T07:11:16;7.55;;;5.32;;
48925;SDS011;39838;59.938;30.642;2023-08-24T07:13:43;10.57;;;5.43;;
48925;SDS011;39838;59.938;30.642;2023-08-24T07:16:11;11.85;;;5.40;;
48925;SDS011;39838;59.938;30.642;2023-08-24T07:18:39;9.48;;;5.43;;
48925;SDS011;39838;59.938;30.642;2023-08-24T07:21:06;8.63;;;5.00;;
48925;SDS011;39838;59.938;30.642;2023-08-24T07:23:33;10.30;;;5.32;;
48925;SDS011;39838;59.938;30.642;2023-08-24T07:26:00;10.32;;;5.60;;
48925;SDS011;39838;59.938;30.642;2023-08-24T07:28:30;9.55;;;5.80;;
48925;SDS011;39838;59.938;30.642;2023-08-24T07:30:57;13.23;;;6.00;;
48925;SDS011;39838;59.938;30.642;2023-08-24T07:33:24;9.63;;;5.63;;
48925;SDS011;39838;59.938;30.642;2023-08-24T07:35:52;9.77;;;5.13;;
48925;SDS011;39838;59.938;30.642;2023-08-24T07:38:19;7.15;;;4.90;;
48925;SDS011;39838;59.938;30.642;2023-08-24T07:40:46;9.27;;;4.70;;
48925;SDS011;39838;59.938;30.642;2023-08-24T07:43:14;9.82;;;4.90;;
48925;SDS011;39838;59.938;30.642;2023-08-24T07:45:42;9.07;;;4.82;;
48925;SDS011;39838;59.938;30.642;2023-08-24T07:48:10;9.80;;;5.13;;
48925;SDS011;39838;59.938;30.642;2023-08-24T07:50:37;12.30;;;5.10;;
48925;SDS011;39838;59.938;30.642;2023-08-24T07:53:04;6.97;;;4.10;;
48925;SDS011;39838;59.938;30.642;2023-08-24T07:55:32;7.38;;;4.00;;
48925;SDS011;39838;59.938;30.642;2023-08-24T07:57:59;7.15;;;4.47;;
48925;SDS011;39838;59.938;30.642;2023-08-24T08:00:25;9.85;;;4.40;;
48925;SDS011;39838;59.938;30.642;2023-08-24T08:02:54;7.18;;;3.90;;
48925;SDS011;39838;59.938;30.642;2023-08-24T08:05:21;10.60;;;4.13;;
48925;SDS011;39838;59.938;30.642;2023-08-24T08:07:49;7.57;;;4.75;;
48925;SDS011;39838;59.938;30.642;2023-08-24T08:10:16;8.93;;;4.38;;
48925;SDS011;39838;59.938;30.642;2023-08-24T08:12:45;14.98;;;5.85;;
48925;SDS011;39838;59.938;30.642;2023-08-24T08:15:12;9.88;;;5.30;;
48925;SDS011;39838;59.938;30.642;2023-08-24T08:17:40;15.05;;;5.63;;
48925;SDS011;39838;59.938;30.642;2023-08-24T08:20:09;9.57;;;4.30;;
48925;SDS011;39838;59.938;30.642;2023-08-24T08:22:37;6.82;;;3.67;;
48925;SDS011;39838;59.938;30.642;2023-08-24T08:25:05;7.68;;;4.20;;
48925;SDS011;39838;59.938;30.642;2023-08-24T08:27:33;9.32;;;4.03;;
48925;SDS011;39838;59.938;30.642;2023-08-24T08:30:00;5.90;;;3.78;;
48925;SDS011;39838;59.938;30.642;2023-08-24T08:32:32;10.27;;;3.85;;
48925;SDS011;39838;59.938;30.642;2023-08-24T08:34:59;8.32;;;3.78;;
48925;SDS011;39838;59.938;30.642;2023-08-24T08:37:32;9.07;;;3.80;;
48925;SDS011;39838;59.938;30.642;2023-08-24T08:39:59;9.57;;;3.70;;
48925;SDS011;39838;59.938;30.642;2023-08-24T08:42:30;7.55;;;3.75;;
48925;SDS011;39838;59.938;30.642;2023-08-24T08:44:58;7.05;;;3.97;;
48925;SDS011;39838;59.938;30.642;2023-08-24T08:47:30;7.18;;;3.63;;
48925;SDS011;39838;59.938;30.642;2023-08-24T08:49:57;7.75;;;3.92;;
48925;SDS011;39838;59.938;30.642;2023-08-24T08:52:30;9.07;;;3.80;;
48925;SDS011;39838;59.938;30.642;2023-08-24T08:55:00;9.68;;;3.90;;
48925;SDS011;39838;59.938;30.642;2023-08-24T08:57:31;12.00;;;3.88;;
48925;SDS011;39838;59.938;30.642;2023-08-24T09:00:00;12.25;;;3.55;;
48925;SDS011;39838;59.938;30.642;2023-08-24T09:02:32;14.00;;;3.70;;
48925;SDS011;39838;59.938;30.642;2023-08-24T09:05:00;10.80;;;3.90;;
48925;SDS011;39838;59.938;30.642;2023-08-24T09:07:30;8.38;;;3.85;;
48925;SDS011;39838;59.938;30.642;2023-08-24T09:09:59;11.73;;;4.32;;
48925;SDS011;39838;59.938;30.642;2023-08-24T09:12:26;9.38;;;4.15;;
48925;SDS011;39838;59.938;30.642;2023-08-24T09:14:58;12.18;;;4.00;;
48925;SDS011;39838;59.938;30.642;2023-08-24T09:17:26;11.73;;;4.13;;
48925;SDS011;39838;59.938;30.642;2023-08-24T09:19:55;9.88;;;3.85;;
48925;SDS011;39838;59.938;30.642;2023-08-24T09:22:25;9.80;;;4.05;;
48925;SDS011;39838;59.938;30.642;2023-08-24T09:24:52;10.82;;;3.92;;
48925;SDS011;39838;59.938;30.642;2023-08-24T09:27:22;9.23;;;4.00;;
48925;SDS011;39838;59.938;30.642;2023-08-24T09:29:49;8.93;;;3.75;;
48925;SDS011;39838;59.938;30.642;2023-08-24T09:32:21;9.00;;;4.13;;
48925;SDS011;39838;59.938;30.642;2023-08-24T09:34:49;12.75;;;4.00;;
48925;SDS011;39838;59.938;30.642;2023-08-24T09:37:16;9.07;;;3.67;;
48925;SDS011;39838;59.938;30.642;2023-08-24T09:39:45;9.00;;;3.55;;
48925;SDS011;39838;59.938;30.642;2023-08-24T09:42:13;5.93;;;3.45;;
48925;SDS011;39838;59.938;30.642;2023-08-24T09:44:44;5.72;;;3.53;;
48925;SDS011;39838;59.938;30.642;2023-08-24T09:47:12;6.93;;;3.80;;
48925;SDS011;39838;59.938;30.642;2023-08-24T09:49:39;19.13;;;3.78;;
48925;SDS011;39838;59.938;30.642;2023-08-24T09:52:06;13.20;;;3.90;;
48925;SDS011;39838;59.938;30.642;2023-08-24T09:54:36;7.85;;;3.85;;
48925;SDS011;39838;59.938;30.642;2023-08-24T09:57:05;9.23;;;3.88;;
48925;SDS011;39838;59.938;30.642;2023-08-24T09:59:34;9.05;;;3.92;;
48925;SDS011;39838;59.938;30.642;2023-08-24T10:02:04;10.05;;;3.60;;
48925;SDS011;39838;59.938;30.642;2023-08-24T10:04:42;8.05;;;3.83;;
48925;SDS011;39838;59.938;30.642;2023-08-24T10:07:11;14.05;;;3.88;;
48925;SDS011;39838;59.938;30.642;2023-08-24T10:09:44;13.38;;;3.80;;
48925;SDS011;39838;59.938;30.642;2023-08-24T10:12:17;23.50;;;4.25;;
48925;SDS011;39838;59.938;30.642;2023-08-24T10:14:48;13.02;;;4.03;;
48925;SDS011;39838;59.938;30.642;2023-08-24T10:17:25;13.52;;;4.28;;
48925;SDS011;39838;59.938;30.642;2023-08-24T10:19:53;15.13;;;3.95;;
48925;SDS011;39838;59.938;30.642;2023-08-24T10:22:22;18.42;;;4.40;;
48925;SDS011;39838;59.938;30.642;2023-08-24T10:24:50;19.50;;;3.97;;
48925;SDS011;39838;59.938;30.642;2023-08-24T10:27:20;19.17;;;4.50;;
48925;SDS011;39838;59.938;30.642;2023-08-24T10:29:49;24.15;;;4.25;;
48925;SDS011;39838;59.938;30.642;2023-08-24T10:32:16;30.10;;;4.60;;
48925;SDS011;39838;59.938;30.642;2023-08-24T10:34:46;11.25;;;4.40;;
48925;SDS011;39838;59.938;30.642;2023-08-24T10:37:13;51.67;;;6.35;;
48925;SDS011;39838;59.938;30.642;2023-08-24T10:39:43;18.48;;;5.00;;
48925;SDS011;39838;59.938;30.642;2023-08-24T10:42:12;8.18;;;3.92;;
48925;SDS011;39838;59.938;30.642;2023-08-24T10:44:44;11.98;;;4.57;;
48925;SDS011;39838;59.938;30.642;2023-08-24T10:47:13;18.50;;;5.07;;
48925;SDS011;39838;59.938;30.642;2023-08-24T10:49:41;22.58;;;4.95;;
48925;SDS011;39838;59.938;30.642;2023-08-24T10:52:20;32.15;;;4.90;;
48925;SDS011;39838;59.938;30.642;2023-08-24T10:54:48;22.40;;;4.75;;
48925;SDS011;39838;59.938;30.642;2023-08-24T10:57:18;10.93;;;4.03;;
48925;SDS011;39838;59.938;30.642;2023-08-24T10:59:57;14.50;;;4.00;;
48925;SDS011;39838;59.938;30.642;2023-08-24T11:02:26;38.83;;;5.75;;
48925;SDS011;39838;59.938;30.642;2023-08-24T11:05:03;15.57;;;4.20;;
48925;SDS011;39838;59.938;30.642;2023-08-24T11:07:33;28.85;;;5.13;;
48925;SDS011;39838;59.938;30.642;2023-08-24T11:10:10;15.05;;;4.43;;
48925;SDS011;39838;59.938;30.642;2023-08-24T11:15:49;10.00;;;4.00;;
48925;SDS011;39838;59.938;30.642;2023-08-24T11:18:21;10.43;;;6.30;;
48925;SDS011;39838;59.938;30.642;2023-08-24T11:20:51;21.48;;;5.90;;
48925;SDS011;39838;59.938;30.642;2023-08-24T11:23:21;7.55;;;4.57;;
48925;SDS011;39838;59.938;30.642;2023-08-24T11:25:51;11.63;;;6.38;;
48925;SDS011;39838;59.938;30.642;2023-08-24T11:28:21;11.18;;;6.13;;
48925;SDS011;39838;59.938;30.642;2023-08-24T11:30:50;8.63;;;5.68;;
48925;SDS011;39838;59.938;30.642;2023-08-24T11:33:26;11.82;;;4.40;;
48925;SDS011;39838;59.938;30.642;2023-08-24T11:35:54;9.68;;;3.97;;
48925;SDS011;39838;59.938;30.642;2023-08-24T11:38:23;10.35;;;3.95;;
48925;SDS011;39838;59.938;30.642;2023-08-24T11:40:51;7.65;;;3.60;;
48925;SDS011;39838;59.938;30.642;2023-08-24T11:43:23;16.27;;;9.93;;
48925;SDS011;39838;59.938;30.642;2023-08-24T11:45:53;13.10;;;5.37;;
48925;SDS011;39838;59.938;30.642;2023-08-24T11:48:23;7.07;;;4.30;;
48925;SDS011;39838;59.938;30.642;2023-08-24T11:50:54;10.20;;;4.40;;
48925;SDS011;39838;59.938;30.642;2023-08-24T11:53:22;7.32;;;3.97;;
48925;SDS011;39838;59.938;30.642;2023-08-24T11:55:52;6.68;;;4.07;;
48925;SDS011;39838;59.938;30.642;2023-08-24T11:58:19;65.60;;;7.72;;
48925;SDS011;39838;59.938;30.642;2023-08-24T12:00:47;12.02;;;4.65;;
48925;SDS011;39838;59.938;30.642;2023-08-24T12:03:15;7.85;;;3.70;;
48925;SDS011;39838;59.938;30.642;2023-08-24T12:05:43;7.03;;;3.88;;
48925;SDS011;39838;59.938;30.642;2023-08-24T12:08:11;10.60;;;4.97;;
48925;SDS011;39838;59.938;30.642;2023-08-24T12:10:42;14.30;;;4.10;;
48925;SDS011;39838;59.938;30.642;2023-08-24T12:13:11;14.30;;;4.53;;
48925;SDS011;39838;59.938;30.642;2023-08-24T12:15:40;9.05;;;3.88;;
48925;SDS011;39838;59.938;30.642;2023-08-24T12:18:08;7.82;;;3.45;;
48925;SDS011;39838;59.938;30.642;2023-08-24T12:20:37;9.40;;;3.80;;
48925;SDS011;39838;59.938;30.642;2023-08-24T12:23:05;7.15;;;3.47;;
48925;SDS011;39838;59.938;30.642;2023-08-24T12:25:35;7.05;;;3.72;;
48925;SDS011;39838;59.938;30.642;2023-08-24T12:28:12;7.75;;;3.70;;
48925;SDS011;39838;59.938;30.642;2023-08-24T12:30:44;6.32;;;3.45;;
48925;SDS011;39838;59.938;30.642;2023-08-24T12:33:21;7.57;;;3.58;;
48925;SDS011;39838;59.938;30.642;2023-08-24T12:35:49;4.68;;;3.13;;
48925;SDS011;39838;59.938;30.642;2023-08-24T12:38:17;11.93;;;3.30;;
48925;SDS011;39838;59.938;30.642;2023-08-24T12:40:44;14.40;;;3.45;;
48925;SDS011;39838;59.938;30.642;2023-08-24T12:43:13;19.90;;;3.80;;
48925;SDS011;39838;59.938;30.642;2023-08-24T12:45:40;16.67;;;3.58;;
48925;SDS011;39838;59.938;30.642;2023-08-24T12:48:08;8.02;;;3.50;;
48925;SDS011;39838;59.938;30.642;2023-08-24T12:50:36;5.47;;;3.30;;
48925;SDS011;39838;59.938;30.642;2023-08-24T12:53:05;7.15;;;3.35;;
48925;SDS011;39838;59.938;30.642;2023-08-24T12:55:33;7.97;;;3.50;;
48925;SDS011;39838;59.938;30.642;2023-08-24T12:58:02;11.02;;;3.30;;
48925;SDS011;39838;59.938;30.642;2023-08-24T13:00:31;7.55;;;3.05;;
48925;SDS011;39838;59.938;30.642;2023-08-24T13:02:59;13.18;;;3.72;;
48925;SDS011;39838;59.938;30.642;2023-08-24T13:05:26;21.10;;;4.20;;
48925;SDS011;39838;59.938;30.642;2023-08-24T13:07:53;15.13;;;3.70;;
48925;SDS011;39838;59.938;30.642;2023-08-24T13:10:21;7.18;;;3.20;;
48925;SDS011;39838;59.938;30.642;2023-08-24T13:12:50;8.73;;;3.05;;
48925;SDS011;39838;59.938;30.642;2023-08-24T13:15:17;6.07;;;3.20;;
48925;SDS011;39838;59.938;30.642;2023-08-24T13:17:47;6.80;;;2.88;;
48925;SDS011;39838;59.938;30.642;2023-08-24T13:20:15;12.15;;;3.72;;
48925;SDS011;39838;59.938;30.642;2023-08-24T13:22:42;8.45;;;3.55;;
48925;SDS011;39838;59.938;30.642;2023-08-24T13:25:10;8.55;;;3.63;;
48925;SDS011;39838;59.938;30.642;2023-08-24T13:27:37;8.70;;;3.20;;
48925;SDS011;39838;59.938;30.642;2023-08-24T13:30:05;14.73;;;3.92;;
48925;SDS011;39838;59.938;30.642;2023-08-24T13:32:33;10.95;;;4.03;;
48925;SDS011;39838;59.938;30.642;2023-08-24T13:35:03;19.20;;;4.05;;
48925;SDS011;39838;59.938;30.642;2023-08-24T13:37:30;18.55;;;4.25;;
48925;SDS011;39838;59.938;30.642;2023-08-24T13:39:58;18.42;;;4.38;;
48925;SDS011;39838;59.938;30.642;2023-08-24T13:42:25;12.25;;;3.90;;
48925;SDS011;39838;59.938;30.642;2023-08-24T13:44:53;25.10;;;4.00;;
48925;SDS011;39838;59.938;30.642;2023-08-24T13:47:20;18.30;;;3.80;;
48925;SDS011;39838;59.938;30.642;2023-08-24T13:49:48;17.52;;;3.70;;
48925;SDS011;39838;59.938;30.642;2023-08-24T13:52:17;11.80;;;4.03;;
48925;SDS011;39838;59.938;30.642;2023-08-24T13:54:44;19.75;;;4.10;;
48925;SDS011;39838;59.938;30.642;2023-08-24T13:57:13;22.85;;;4.38;;
48925;SDS011;39838;59.938;30.642;2023-08-24T13:59:40;79.68;;;6.35;;
48925;SDS011;39838;59.938;30.642;2023-08-24T14:02:08;19.70;;;3.53;;
48925;SDS011;39838;59.938;30.642;2023-08-24T14:04:37;7.63;;;3.00;;
48925;SDS011;39838;59.938;30.642;2023-08-24T14:07:04;17.02;;;3.42;;
48925;SDS011;39838;59.938;30.642;2023-08-24T14:09:33;18.17;;;3.47;;
48925;SDS011;39838;59.938;30.642;2023-08-24T14:12:00;58.47;;;5.32;;
48925;SDS011;39838;59.938;30.642;2023-08-24T14:14:27;15.80;;;4.00;;
48925;SDS011;39838;59.938;30.642;2023-08-24T14:16:55;16.58;;;3.75;;
48925;SDS011;39838;59.938;30.642;2023-08-24T14:19:23;30.83;;;4.35;;
48925;SDS011;39838;59.938;30.642;2023-08-24T14:21:51;12.40;;;3.25;;
48925;SDS011;39838;59.938;30.642;2023-08-24T14:24:18;22.75;;;4.18;;
48925;SDS011;39838;59.938;30.642;2023-08-24T14:26:47;25.63;;;3.78;;
48925;SDS011;39838;59.938;30.642;2023-08-24T14:29:15;14.10;;;3.63;;
48925;SDS011;39838;59.938;30.642;2023-08-24T14:31:42;7.25;;;3.30;;
48925;SDS011;39838;59.938;30.642;2023-08-24T14:34:10;14.88;;;3.40;;
48925;SDS011;39838;59.938;30.642;2023-08-24T14:36:37;49.60;;;5.32;;
48925;SDS011;39838;59.938;30.642;2023-08-24T14:39:04;30.38;;;4.20;;